sensor_id;sensor_type;location;lat;lon;timestamp;P1;durP1;ratioP1;P2;durP2;ratioP2
9322;SDS011;4700;48.822;9.270;2023-02-01T00:01:17;16.67;;;15.70;;
9322;SDS011;4700;48.822;9.270;2023-02-01T00:04:03;18.90;;;17.83;;
9322;SDS011;4700;48.822;9.270;2023-02-01T00:06:49;13.47;;;12.67;;
9322;SDS011;4700;48.822;9.270;2023-02-01T00:09:34;15.50;;;14.33;;
9322;SDS011;4700;48.822;9.270;2023-02-01T00:12:20;16.40;;;15.40;;
9322;SDS011;4700;48.822;9.270;2023-02-01T00:15:06;13.70;;;12.93;;
9322;SDS011;4700;48.822;9.270;2023-02-01T00:17:54;18.90;;;17.83;;
9322;SDS011;4700;48.822;9.270;2023-02-01T00:20:44;17.30;;;16.30;;
9322;SDS011;4700;48.822;9.270;2023-02-01T00:23:31;16.13;;;15.23;;
9322;SDS011;4700;48.822;9.270;2023-02-01T00:26:19;14.43;;;13.60;;
9322;SDS011;4700;48.822;9.270;2023-02-01T00:29:18;15.73;;;14.83;;
9322;SDS011;4700;48.822;9.270;2023-02-01T00:32:05;19.57;;;18.43;;
9322;SDS011;4700;48.822;9.270;2023-02-01T00:34:53;18.93;;;17.73;;
9322;SDS011;4700;48.822;9.270;2023-02-01T00:37:38;16.90;;;15.97;;
9322;SDS011;4700;48.822;9.270;2023-02-01T00:40:24;17.20;;;16.30;;
9322;SDS011;4700;48.822;9.270;2023-02-01T00:43:10;20.17;;;19.00;;
9322;SDS011;4700;48.822;9.270;2023-02-01T00:45:56;15.33;;;14.40;;
9322;SDS011;4700;48.822;9.270;2023-02-01T00:48:42;15.80;;;14.83;;
9322;SDS011;4700;48.822;9.270;2023-02-01T00:51:30;18.97;;;17.93;;
9322;SDS011;4700;48.822;9.270;2023-02-01T00:59:22;11.93;;;11.20;;
9322;SDS011;4700;48.822;9.270;2023-02-01T01:02:07;10.37;;;9.73;;
9322;SDS011;4700;48.822;9.270;2023-02-01T01:04:54;11.40;;;10.73;;
9322;SDS011;4700;48.822;9.270;2023-02-01T01:07:41;13.37;;;12.50;;
9322;SDS011;4700;48.822;9.270;2023-02-01T01:10:28;16.63;;;15.57;;
9322;SDS011;4700;48.822;9.270;2023-02-01T01:13:14;12.80;;;11.93;;
9322;SDS011;4700;48.822;9.270;2023-02-01T01:16:00;15.10;;;14.17;;
9322;SDS011;4700;48.822;9.270;2023-02-01T01:18:48;12.30;;;11.50;;
9322;SDS011;4700;48.822;9.270;2023-02-01T01:21:34;9.53;;;8.93;;
9322;SDS011;4700;48.822;9.270;2023-02-01T01:24:21;12.50;;;11.80;;
9322;SDS011;4700;48.822;9.270;2023-02-01T01:27:07;14.80;;;13.93;;
9322;SDS011;4700;48.822;9.270;2023-02-01T01:29:52;17.87;;;16.73;;
9322;SDS011;4700;48.822;9.270;2023-02-01T01:32:38;16.40;;;15.37;;
9322;SDS011;4700;48.822;9.270;2023-02-01T01:35:24;13.83;;;12.83;;
9322;SDS011;4700;48.822;9.270;2023-02-01T01:38:10;16.57;;;15.30;;
9322;SDS011;4700;48.822;9.270;2023-02-01T01:40:57;16.80;;;15.60;;
9322;SDS011;4700;48.822;9.270;2023-02-01T01:43:54;16.00;;;14.83;;
9322;SDS011;4700;48.822;9.270;2023-02-01T01:46:41;17.03;;;15.90;;
9322;SDS011;4700;48.822;9.270;2023-02-01T01:49:27;14.30;;;13.37;;
9322;SDS011;4700;48.822;9.270;2023-02-01T01:52:13;13.57;;;12.63;;
9322;SDS011;4700;48.822;9.270;2023-02-01T01:55:00;14.00;;;13.07;;
9322;SDS011;4700;48.822;9.270;2023-02-01T01:57:48;15.77;;;14.57;;
9322;SDS011;4700;48.822;9.270;2023-02-01T02:00:34;15.60;;;14.77;;
9322;SDS011;4700;48.822;9.270;2023-02-01T02:03:21;18.67;;;17.73;;
9322;SDS011;4700;48.822;9.270;2023-02-01T02:06:11;15.73;;;14.93;;
9322;SDS011;4700;48.822;9.270;2023-02-01T02:09:04;17.20;;;16.27;;
9322;SDS011;4700;48.822;9.270;2023-02-01T02:11:50;16.23;;;15.30;;
9322;SDS011;4700;48.822;9.270;2023-02-01T02:14:37;16.60;;;15.63;;
9322;SDS011;4700;48.822;9.270;2023-02-01T02:17:27;14.43;;;13.60;;
9322;SDS011;4700;48.822;9.270;2023-02-01T02:20:40;16.07;;;15.10;;
9322;SDS011;4700;48.822;9.270;2023-02-01T02:26:56;16.30;;;15.50;;
9322;SDS011;4700;48.822;9.270;2023-02-01T02:33:30;17.40;;;16.37;;
9322;SDS011;4700;48.822;9.270;2023-02-01T02:36:30;17.30;;;16.33;;
9322;SDS011;4700;48.822;9.270;2023-02-01T02:39:21;19.67;;;18.53;;
9322;SDS011;4700;48.822;9.270;2023-02-01T02:42:14;17.97;;;16.87;;
9322;SDS011;4700;48.822;9.270;2023-02-01T02:45:28;18.50;;;17.37;;
9322;SDS011;4700;48.822;9.270;2023-02-01T02:48:43;18.77;;;17.80;;
9322;SDS011;4700;48.822;9.270;2023-02-01T02:51:34;18.47;;;17.40;;
9322;SDS011;4700;48.822;9.270;2023-02-01T02:54:45;20.90;;;19.90;;
9322;SDS011;4700;48.822;9.270;2023-02-01T02:57:35;15.97;;;15.13;;
9322;SDS011;4700;48.822;9.270;2023-02-01T03:00:41;15.53;;;14.63;;
9322;SDS011;4700;48.822;9.270;2023-02-01T03:03:47;17.67;;;16.63;;
9322;SDS011;4700;48.822;9.270;2023-02-01T03:06:53;18.60;;;17.63;;
9322;SDS011;4700;48.822;9.270;2023-02-01T03:09:40;17.33;;;16.43;;
9322;SDS011;4700;48.822;9.270;2023-02-01T03:12:29;17.33;;;16.30;;
9322;SDS011;4700;48.822;9.270;2023-02-01T03:15:36;16.60;;;15.57;;
9322;SDS011;4700;48.822;9.270;2023-02-01T03:18:29;18.47;;;17.50;;
9322;SDS011;4700;48.822;9.270;2023-02-01T03:21:24;15.83;;;15.03;;
9322;SDS011;4700;48.822;9.270;2023-02-01T03:24:14;17.10;;;16.17;;
9322;SDS011;4700;48.822;9.270;2023-02-01T03:27:03;17.40;;;16.57;;
9322;SDS011;4700;48.822;9.270;2023-02-01T03:29:54;15.63;;;14.87;;
9322;SDS011;4700;48.822;9.270;2023-02-01T03:36:26;22.20;;;21.00;;
9322;SDS011;4700;48.822;9.270;2023-02-01T03:39:20;17.50;;;16.47;;
9322;SDS011;4700;48.822;9.270;2023-02-01T03:42:13;19.40;;;18.23;;
9322;SDS011;4700;48.822;9.270;2023-02-01T03:45:05;19.27;;;18.23;;
9322;SDS011;4700;48.822;9.270;2023-02-01T03:47:56;20.43;;;19.27;;
9322;SDS011;4700;48.822;9.270;2023-02-01T03:50:46;20.27;;;19.13;;
9322;SDS011;4700;48.822;9.270;2023-02-01T03:53:38;18.17;;;17.30;;
9322;SDS011;4700;48.822;9.270;2023-02-01T03:56:27;18.90;;;17.93;;
9322;SDS011;4700;48.822;9.270;2023-02-01T03:59:14;16.67;;;15.33;;
9322;SDS011;4700;48.822;9.270;2023-02-01T04:02:00;17.87;;;16.93;;
9322;SDS011;4700;48.822;9.270;2023-02-01T04:04:46;16.10;;;15.10;;
9322;SDS011;4700;48.822;9.270;2023-02-01T04:07:31;16.33;;;15.40;;
9322;SDS011;4700;48.822;9.270;2023-02-01T04:10:19;16.00;;;15.13;;
9322;SDS011;4700;48.822;9.270;2023-02-01T04:13:04;14.63;;;13.87;;
9322;SDS011;4700;48.822;9.270;2023-02-01T04:15:51;14.47;;;13.57;;
9322;SDS011;4700;48.822;9.270;2023-02-01T04:18:37;16.50;;;15.63;;
9322;SDS011;4700;48.822;9.270;2023-02-01T04:21:23;14.97;;;14.00;;
9322;SDS011;4700;48.822;9.270;2023-02-01T04:24:09;15.50;;;14.53;;
9322;SDS011;4700;48.822;9.270;2023-02-01T04:26:56;15.53;;;14.53;;
9322;SDS011;4700;48.822;9.270;2023-02-01T04:29:42;16.17;;;14.80;;
9322;SDS011;4700;48.822;9.270;2023-02-01T04:32:28;15.47;;;14.53;;
9322;SDS011;4700;48.822;9.270;2023-02-01T04:35:14;16.43;;;15.33;;
9322;SDS011;4700;48.822;9.270;2023-02-01T04:38:01;18.20;;;17.13;;
9322;SDS011;4700;48.822;9.270;2023-02-01T04:40:47;19.00;;;17.87;;
9322;SDS011;4700;48.822;9.270;2023-02-01T04:43:36;17.53;;;16.53;;
9322;SDS011;4700;48.822;9.270;2023-02-01T04:46:22;24.00;;;21.97;;
9322;SDS011;4700;48.822;9.270;2023-02-01T04:49:08;19.27;;;18.13;;
9322;SDS011;4700;48.822;9.270;2023-02-01T04:51:54;19.87;;;18.27;;
9322;SDS011;4700;48.822;9.270;2023-02-01T04:54:39;21.07;;;19.70;;
9322;SDS011;4700;48.822;9.270;2023-02-01T04:57:25;19.40;;;17.97;;
9322;SDS011;4700;48.822;9.270;2023-02-01T05:00:13;17.40;;;16.50;;
9322;SDS011;4700;48.822;9.270;2023-02-01T05:03:00;16.30;;;15.47;;
9322;SDS011;4700;48.822;9.270;2023-02-01T05:05:46;17.83;;;16.90;;
9322;SDS011;4700;48.822;9.270;2023-02-01T05:08:32;15.83;;;15.10;;
9322;SDS011;4700;48.822;9.270;2023-02-01T05:11:18;17.47;;;16.53;;
9322;SDS011;4700;48.822;9.270;2023-02-01T05:14:22;17.90;;;16.77;;
9322;SDS011;4700;48.822;9.270;2023-02-01T05:17:12;22.77;;;21.53;;
9322;SDS011;4700;48.822;9.270;2023-02-01T05:19:58;15.37;;;14.43;;
9322;SDS011;4700;48.822;9.270;2023-02-01T05:22:44;20.97;;;19.83;;
9322;SDS011;4700;48.822;9.270;2023-02-01T05:25:30;18.77;;;17.80;;
9322;SDS011;4700;48.822;9.270;2023-02-01T05:28:16;19.47;;;18.43;;
9322;SDS011;4700;48.822;9.270;2023-02-01T05:31:05;18.97;;;17.83;;
9322;SDS011;4700;48.822;9.270;2023-02-01T05:33:56;16.70;;;15.73;;
9322;SDS011;4700;48.822;9.270;2023-02-01T05:36:42;20.80;;;19.63;;
9322;SDS011;4700;48.822;9.270;2023-02-01T05:39:27;19.37;;;18.33;;
9322;SDS011;4700;48.822;9.270;2023-02-01T05:42:13;19.67;;;18.63;;
9322;SDS011;4700;48.822;9.270;2023-02-01T05:44:59;16.03;;;15.20;;
9322;SDS011;4700;48.822;9.270;2023-02-01T05:47:45;22.80;;;21.63;;
9322;SDS011;4700;48.822;9.270;2023-02-01T05:50:32;18.43;;;17.17;;
9322;SDS011;4700;48.822;9.270;2023-02-01T05:53:18;18.97;;;17.90;;
9322;SDS011;4700;48.822;9.270;2023-02-01T05:56:04;24.07;;;22.50;;
9322;SDS011;4700;48.822;9.270;2023-02-01T05:58:51;20.57;;;19.40;;
9322;SDS011;4700;48.822;9.270;2023-02-01T06:01:36;20.30;;;19.00;;
9322;SDS011;4700;48.822;9.270;2023-02-01T06:04:22;20.27;;;18.83;;
9322;SDS011;4700;48.822;9.270;2023-02-01T06:07:09;23.40;;;22.07;;
9322;SDS011;4700;48.822;9.270;2023-02-01T06:09:55;19.77;;;18.23;;
9322;SDS011;4700;48.822;9.270;2023-02-01T06:12:40;17.07;;;16.13;;
9322;SDS011;4700;48.822;9.270;2023-02-01T06:15:26;18.03;;;17.00;;
9322;SDS011;4700;48.822;9.270;2023-02-01T06:18:12;21.57;;;20.20;;
9322;SDS011;4700;48.822;9.270;2023-02-01T06:20:59;19.17;;;18.17;;
9322;SDS011;4700;48.822;9.270;2023-02-01T06:23:46;17.77;;;16.90;;
9322;SDS011;4700;48.822;9.270;2023-02-01T06:26:32;20.90;;;19.83;;
9322;SDS011;4700;48.822;9.270;2023-02-01T06:29:21;21.03;;;19.93;;
9322;SDS011;4700;48.822;9.270;2023-02-01T06:32:07;18.33;;;17.47;;
9322;SDS011;4700;48.822;9.270;2023-02-01T06:34:53;18.40;;;17.33;;
9322;SDS011;4700;48.822;9.270;2023-02-01T06:37:39;19.40;;;18.20;;
9322;SDS011;4700;48.822;9.270;2023-02-01T06:40:27;23.27;;;21.67;;
9322;SDS011;4700;48.822;9.270;2023-02-01T06:43:12;21.57;;;19.93;;
9322;SDS011;4700;48.822;9.270;2023-02-01T06:45:59;20.63;;;19.47;;
9322;SDS011;4700;48.822;9.270;2023-02-01T06:48:46;23.27;;;21.50;;
9322;SDS011;4700;48.822;9.270;2023-02-01T06:51:33;23.70;;;22.43;;
9322;SDS011;4700;48.822;9.270;2023-02-01T06:54:19;28.53;;;26.57;;
9322;SDS011;4700;48.822;9.270;2023-02-01T06:57:06;25.17;;;23.50;;
9322;SDS011;4700;48.822;9.270;2023-02-01T06:59:52;58.83;;;44.47;;
9322;SDS011;4700;48.822;9.270;2023-02-01T07:02:39;29.13;;;26.33;;
9322;SDS011;4700;48.822;9.270;2023-02-01T07:05:27;23.50;;;21.37;;
9322;SDS011;4700;48.822;9.270;2023-02-01T07:08:12;21.63;;;19.97;;
9322;SDS011;4700;48.822;9.270;2023-02-01T07:11:02;24.67;;;23.07;;
9322;SDS011;4700;48.822;9.270;2023-02-01T07:13:50;22.97;;;21.53;;
9322;SDS011;4700;48.822;9.270;2023-02-01T07:16:38;19.47;;;17.77;;
9322;SDS011;4700;48.822;9.270;2023-02-01T07:19:27;20.10;;;18.77;;
9322;SDS011;4700;48.822;9.270;2023-02-01T07:22:13;26.97;;;24.80;;
9322;SDS011;4700;48.822;9.270;2023-02-01T07:25:08;21.93;;;20.47;;
9322;SDS011;4700;48.822;9.270;2023-02-01T07:27:56;22.70;;;20.90;;
9322;SDS011;4700;48.822;9.270;2023-02-01T07:30:47;21.50;;;20.03;;
9322;SDS011;4700;48.822;9.270;2023-02-01T07:33:34;21.07;;;19.37;;
9322;SDS011;4700;48.822;9.270;2023-02-01T07:36:20;22.47;;;20.50;;
9322;SDS011;4700;48.822;9.270;2023-02-01T07:39:06;24.07;;;22.17;;
9322;SDS011;4700;48.822;9.270;2023-02-01T07:41:52;20.07;;;18.27;;
9322;SDS011;4700;48.822;9.270;2023-02-01T07:44:38;20.33;;;18.43;;
9322;SDS011;4700;48.822;9.270;2023-02-01T07:47:25;22.43;;;20.23;;
9322;SDS011;4700;48.822;9.270;2023-02-01T07:50:10;15.60;;;14.33;;
9322;SDS011;4700;48.822;9.270;2023-02-01T07:52:57;19.97;;;18.47;;
9322;SDS011;4700;48.822;9.270;2023-02-01T07:55:44;27.57;;;24.77;;
9322;SDS011;4700;48.822;9.270;2023-02-01T07:58:31;21.53;;;19.73;;
9322;SDS011;4700;48.822;9.270;2023-02-01T08:01:18;22.73;;;20.67;;
9322;SDS011;4700;48.822;9.270;2023-02-01T08:04:11;19.73;;;17.73;;
9322;SDS011;4700;48.822;9.270;2023-02-01T08:06:58;19.20;;;17.60;;
9322;SDS011;4700;48.822;9.270;2023-02-01T08:09:43;23.43;;;20.93;;
9322;SDS011;4700;48.822;9.270;2023-02-01T08:12:29;25.83;;;22.63;;
9322;SDS011;4700;48.822;9.270;2023-02-01T08:15:15;29.97;;;26.53;;
9322;SDS011;4700;48.822;9.270;2023-02-01T08:18:03;24.10;;;22.07;;
9322;SDS011;4700;48.822;9.270;2023-02-01T08:20:51;17.10;;;11.98;;
9322;SDS011;4700;48.822;9.270;2023-02-01T08:23:37;17.97;;;11.80;;
9322;SDS011;4700;48.822;9.270;2023-02-01T08:26:25;29.93;;;19.17;;
9322;SDS011;4700;48.822;9.270;2023-02-01T08:29:11;27.43;;;19.60;;
9322;SDS011;4700;48.822;9.270;2023-02-01T08:31:57;26.80;;;19.13;;
9322;SDS011;4700;48.822;9.270;2023-02-01T08:34:43;8.98;;;4.90;;
9322;SDS011;4700;48.822;9.270;2023-02-01T08:37:30;21.03;;;7.57;;
9322;SDS011;4700;48.822;9.270;2023-02-01T08:40:16;24.93;;;11.53;;
9322;SDS011;4700;48.822;9.270;2023-02-01T08:43:03;16.03;;;9.93;;
9322;SDS011;4700;48.822;9.270;2023-02-01T08:45:49;27.13;;;15.27;;
9322;SDS011;4700;48.822;9.270;2023-02-01T08:48:38;20.97;;;14.50;;
9322;SDS011;4700;48.822;9.270;2023-02-01T08:51:24;41.27;;;18.57;;
9322;SDS011;4700;48.822;9.270;2023-02-01T08:54:11;33.13;;;15.80;;
9322;SDS011;4700;48.822;9.270;2023-02-01T08:56:57;24.90;;;14.03;;
9322;SDS011;4700;48.822;9.270;2023-02-01T08:59:44;40.90;;;19.97;;
9322;SDS011;4700;48.822;9.270;2023-02-01T09:02:28;30.80;;;15.40;;
9322;SDS011;4700;48.822;9.270;2023-02-01T09:05:13;26.83;;;15.53;;
9322;SDS011;4700;48.822;9.270;2023-02-01T09:08:02;40.00;;;18.90;;
9322;SDS011;4700;48.822;9.270;2023-02-01T09:10:50;26.30;;;15.23;;
9322;SDS011;4700;48.822;9.270;2023-02-01T09:13:36;44.00;;;25.60;;
9322;SDS011;4700;48.822;9.270;2023-02-01T09:16:25;31.33;;;15.60;;
9322;SDS011;4700;48.822;9.270;2023-02-01T09:19:12;29.33;;;18.63;;
9322;SDS011;4700;48.822;9.270;2023-02-01T09:21:58;30.80;;;19.27;;
9322;SDS011;4700;48.822;9.270;2023-02-01T09:24:44;17.20;;;12.00;;
9322;SDS011;4700;48.822;9.270;2023-02-01T09:27:32;32.60;;;19.00;;
9322;SDS011;4700;48.822;9.270;2023-02-01T09:30:18;24.57;;;13.80;;
9322;SDS011;4700;48.822;9.270;2023-02-01T09:33:04;33.17;;;18.87;;
9322;SDS011;4700;48.822;9.270;2023-02-01T09:35:54;33.63;;;18.13;;
9322;SDS011;4700;48.822;9.270;2023-02-01T09:38:41;23.47;;;14.23;;
9322;SDS011;4700;48.822;9.270;2023-02-01T09:41:32;31.10;;;16.93;;
9322;SDS011;4700;48.822;9.270;2023-02-01T09:44:32;16.27;;;9.83;;
9322;SDS011;4700;48.822;9.270;2023-02-01T09:47:30;44.20;;;19.10;;
9322;SDS011;4700;48.822;9.270;2023-02-01T09:50:18;27.53;;;15.40;;
9322;SDS011;4700;48.822;9.270;2023-02-01T09:53:06;30.73;;;14.23;;
9322;SDS011;4700;48.822;9.270;2023-02-01T09:56:00;29.27;;;16.40;;
9322;SDS011;4700;48.822;9.270;2023-02-01T09:58:52;26.47;;;14.97;;
9322;SDS011;4700;48.822;9.270;2023-02-01T10:01:43;22.97;;;12.80;;
9322;SDS011;4700;48.822;9.270;2023-02-01T10:04:29;17.67;;;11.33;;
9322;SDS011;4700;48.822;9.270;2023-02-01T10:07:20;29.67;;;12.83;;
9322;SDS011;4700;48.822;9.270;2023-02-01T10:10:14;22.97;;;12.83;;
9322;SDS011;4700;48.822;9.270;2023-02-01T10:13:18;37.40;;;18.93;;
9322;SDS011;4700;48.822;9.270;2023-02-01T10:16:16;23.13;;;11.93;;
9322;SDS011;4700;48.822;9.270;2023-02-01T10:19:22;28.87;;;14.30;;
9322;SDS011;4700;48.822;9.270;2023-02-01T10:22:22;20.97;;;11.63;;
9322;SDS011;4700;48.822;9.270;2023-02-01T10:25:17;24.73;;;10.03;;
9322;SDS011;4700;48.822;9.270;2023-02-01T10:28:10;28.23;;;12.23;;
9322;SDS011;4700;48.822;9.270;2023-02-01T10:30:59;23.37;;;9.83;;
9322;SDS011;4700;48.822;9.270;2023-02-01T10:33:47;23.47;;;10.47;;
9322;SDS011;4700;48.822;9.270;2023-02-01T10:36:39;21.63;;;10.03;;
9322;SDS011;4700;48.822;9.270;2023-02-01T10:39:26;23.03;;;9.07;;
9322;SDS011;4700;48.822;9.270;2023-02-01T10:42:15;41.90;;;15.73;;
9322;SDS011;4700;48.822;9.270;2023-02-01T10:45:03;25.30;;;11.67;;
9322;SDS011;4700;48.822;9.270;2023-02-01T10:47:52;18.57;;;8.60;;
9322;SDS011;4700;48.822;9.270;2023-02-01T10:50:41;19.53;;;8.00;;
9322;SDS011;4700;48.822;9.270;2023-02-01T10:53:36;13.57;;;4.80;;
9322;SDS011;4700;48.822;9.270;2023-02-01T10:56:29;32.23;;;13.37;;
9322;SDS011;4700;48.822;9.270;2023-02-01T10:59:16;29.57;;;12.63;;
9322;SDS011;4700;48.822;9.270;2023-02-01T11:02:05;21.13;;;8.40;;
9322;SDS011;4700;48.822;9.270;2023-02-01T11:05:05;27.10;;;13.47;;
9322;SDS011;4700;48.822;9.270;2023-02-01T11:07:53;24.37;;;10.03;;
9322;SDS011;4700;48.822;9.270;2023-02-01T11:10:42;25.10;;;10.80;;
9322;SDS011;4700;48.822;9.270;2023-02-01T11:13:28;26.83;;;10.80;;
9322;SDS011;4700;48.822;9.270;2023-02-01T11:16:16;29.13;;;11.93;;
9322;SDS011;4700;48.822;9.270;2023-02-01T11:19:04;28.73;;;13.50;;
9322;SDS011;4700;48.822;9.270;2023-02-01T11:21:50;19.90;;;9.33;;
9322;SDS011;4700;48.822;9.270;2023-02-01T11:24:38;28.30;;;11.60;;
9322;SDS011;4700;48.822;9.270;2023-02-01T11:27:26;13.73;;;7.50;;
9322;SDS011;4700;48.822;9.270;2023-02-01T11:30:14;27.30;;;11.93;;
9322;SDS011;4700;48.822;9.270;2023-02-01T11:33:05;25.73;;;10.87;;
9322;SDS011;4700;48.822;9.270;2023-02-01T11:35:57;27.40;;;10.27;;
9322;SDS011;4700;48.822;9.270;2023-02-01T11:38:52;33.10;;;12.50;;
9322;SDS011;4700;48.822;9.270;2023-02-01T11:41:57;31.27;;;12.30;;
9322;SDS011;4700;48.822;9.270;2023-02-01T11:44:47;26.67;;;10.50;;
9322;SDS011;4700;48.822;9.270;2023-02-01T11:47:38;19.83;;;9.20;;
9322;SDS011;4700;48.822;9.270;2023-02-01T11:50:27;14.80;;;5.40;;
9322;SDS011;4700;48.822;9.270;2023-02-01T11:53:33;35.07;;;14.23;;
9322;SDS011;4700;48.822;9.270;2023-02-01T11:56:32;37.87;;;11.00;;
9322;SDS011;4700;48.822;9.270;2023-02-01T11:59:25;35.97;;;14.70;;
9322;SDS011;4700;48.822;9.270;2023-02-01T12:02:30;32.20;;;11.67;;
9322;SDS011;4700;48.822;9.270;2023-02-01T12:05:28;27.03;;;10.23;;
9322;SDS011;4700;48.822;9.270;2023-02-01T12:08:49;36.80;;;13.23;;
9322;SDS011;4700;48.822;9.270;2023-02-01T12:11:57;26.70;;;10.50;;
9322;SDS011;4700;48.822;9.270;2023-02-01T12:14:52;18.13;;;8.40;;
9322;SDS011;4700;48.822;9.270;2023-02-01T12:18:27;21.53;;;9.13;;
9322;SDS011;4700;48.822;9.270;2023-02-01T12:24:59;23.40;;;8.70;;
9322;SDS011;4700;48.822;9.270;2023-02-01T12:28:21;23.33;;;10.13;;
9322;SDS011;4700;48.822;9.270;2023-02-01T12:31:27;17.53;;;7.80;;
9322;SDS011;4700;48.822;9.270;2023-02-01T12:34:53;20.20;;;9.53;;
9322;SDS011;4700;48.822;9.270;2023-02-01T12:38:10;27.97;;;11.70;;
9322;SDS011;4700;48.822;9.270;2023-02-01T12:41:16;26.87;;;10.50;;
9322;SDS011;4700;48.822;9.270;2023-02-01T12:44:42;33.90;;;14.37;;
9322;SDS011;4700;48.822;9.270;2023-02-01T12:47:35;27.27;;;11.27;;
9322;SDS011;4700;48.822;9.270;2023-02-01T12:50:28;35.37;;;12.33;;
9322;SDS011;4700;48.822;9.270;2023-02-01T12:53:22;25.27;;;10.53;;
9322;SDS011;4700;48.822;9.270;2023-02-01T12:56:12;11.23;;;3.90;;
9322;SDS011;4700;48.822;9.270;2023-02-01T12:59:08;42.33;;;18.10;;
9322;SDS011;4700;48.822;9.270;2023-02-01T13:02:04;26.03;;;10.80;;
9322;SDS011;4700;48.822;9.270;2023-02-01T13:05:00;32.93;;;11.60;;
9322;SDS011;4700;48.822;9.270;2023-02-01T13:07:59;24.57;;;11.20;;
9322;SDS011;4700;48.822;9.270;2023-02-01T13:10:50;31.87;;;12.83;;
9322;SDS011;4700;48.822;9.270;2023-02-01T13:13:48;34.93;;;14.20;;
9322;SDS011;4700;48.822;9.270;2023-02-01T13:16:42;25.17;;;10.43;;
9322;SDS011;4700;48.822;9.270;2023-02-01T13:19:34;23.20;;;9.83;;
9322;SDS011;4700;48.822;9.270;2023-02-01T13:22:27;35.03;;;13.30;;
9322;SDS011;4700;48.822;9.270;2023-02-01T13:25:19;37.07;;;14.13;;
9322;SDS011;4700;48.822;9.270;2023-02-01T13:28:14;31.70;;;11.33;;
9322;SDS011;4700;48.822;9.270;2023-02-01T13:31:07;31.53;;;13.07;;
9322;SDS011;4700;48.822;9.270;2023-02-01T13:34:26;39.77;;;16.40;;
9322;SDS011;4700;48.822;9.270;2023-02-01T13:37:43;14.57;;;7.73;;
9322;SDS011;4700;48.822;9.270;2023-02-01T13:40:51;30.30;;;12.00;;
9322;SDS011;4700;48.822;9.270;2023-02-01T13:43:46;22.83;;;8.80;;
9322;SDS011;4700;48.822;9.270;2023-02-01T13:46:38;33.97;;;13.60;;
9322;SDS011;4700;48.822;9.270;2023-02-01T13:49:27;33.17;;;14.43;;
9322;SDS011;4700;48.822;9.270;2023-02-01T13:52:26;33.87;;;10.73;;
9322;SDS011;4700;48.822;9.270;2023-02-01T13:55:23;17.00;;;7.77;;
9322;SDS011;4700;48.822;9.270;2023-02-01T13:58:17;15.30;;;7.57;;
9322;SDS011;4700;48.822;9.270;2023-02-01T14:03:42;20.47;;;8.80;;
9322;SDS011;4700;48.822;9.270;2023-02-01T14:06:38;20.87;;;8.87;;
9322;SDS011;4700;48.822;9.270;2023-02-01T14:09:33;26.73;;;11.07;;
9322;SDS011;4700;48.822;9.270;2023-02-01T14:12:46;20.33;;;6.50;;
9322;SDS011;4700;48.822;9.270;2023-02-01T14:15:36;19.67;;;8.63;;
9322;SDS011;4700;48.822;9.270;2023-02-01T14:21:34;17.50;;;8.20;;
9322;SDS011;4700;48.822;9.270;2023-02-01T14:24:32;30.53;;;10.83;;
9322;SDS011;4700;48.822;9.270;2023-02-01T14:27:23;17.47;;;7.53;;
9322;SDS011;4700;48.822;9.270;2023-02-01T14:30:14;33.80;;;12.80;;
9322;SDS011;4700;48.822;9.270;2023-02-01T14:33:14;27.10;;;11.17;;
9322;SDS011;4700;48.822;9.270;2023-02-01T14:36:06;19.50;;;8.00;;
9322;SDS011;4700;48.822;9.270;2023-02-01T14:38:55;29.20;;;12.23;;
9322;SDS011;4700;48.822;9.270;2023-02-01T14:41:40;15.77;;;6.07;;
9322;SDS011;4700;48.822;9.270;2023-02-01T14:44:30;25.90;;;11.57;;
9322;SDS011;4700;48.822;9.270;2023-02-01T14:47:30;20.97;;;10.47;;
9322;SDS011;4700;48.822;9.270;2023-02-01T14:50:24;25.30;;;9.60;;
9322;SDS011;4700;48.822;9.270;2023-02-01T14:53:15;55.30;;;19.07;;
9322;SDS011;4700;48.822;9.270;2023-02-01T14:56:07;16.53;;;8.10;;
9322;SDS011;4700;48.822;9.270;2023-02-01T14:58:59;32.07;;;11.57;;
9322;SDS011;4700;48.822;9.270;2023-02-01T15:01:55;24.77;;;11.10;;
9322;SDS011;4700;48.822;9.270;2023-02-01T15:04:53;19.17;;;8.27;;
9322;SDS011;4700;48.822;9.270;2023-02-01T15:07:44;18.83;;;8.80;;
9322;SDS011;4700;48.822;9.270;2023-02-01T15:10:32;21.73;;;10.73;;
9322;SDS011;4700;48.822;9.270;2023-02-01T15:13:27;27.27;;;11.53;;
9322;SDS011;4700;48.822;9.270;2023-02-01T15:16:15;15.77;;;5.40;;
9322;SDS011;4700;48.822;9.270;2023-02-01T15:19:08;19.70;;;7.20;;
9322;SDS011;4700;48.822;9.270;2023-02-01T15:21:56;22.83;;;9.40;;
9322;SDS011;4700;48.822;9.270;2023-02-01T15:24:51;23.40;;;10.10;;
9322;SDS011;4700;48.822;9.270;2023-02-01T15:27:38;20.23;;;9.53;;
9322;SDS011;4700;48.822;9.270;2023-02-01T15:30:27;16.30;;;7.53;;
9322;SDS011;4700;48.822;9.270;2023-02-01T15:33:15;18.17;;;7.10;;
9322;SDS011;4700;48.822;9.270;2023-02-01T15:36:07;29.80;;;11.40;;
9322;SDS011;4700;48.822;9.270;2023-02-01T15:39:15;16.90;;;8.53;;
9322;SDS011;4700;48.822;9.270;2023-02-01T15:42:11;26.63;;;11.97;;
9322;SDS011;4700;48.822;9.270;2023-02-01T15:44:59;23.20;;;8.73;;
9322;SDS011;4700;48.822;9.270;2023-02-01T15:47:46;14.13;;;6.50;;
9322;SDS011;4700;48.822;9.270;2023-02-01T15:50:33;15.47;;;6.40;;
9322;SDS011;4700;48.822;9.270;2023-02-01T15:53:24;21.37;;;9.57;;
9322;SDS011;4700;48.822;9.270;2023-02-01T15:56:14;23.53;;;9.60;;
9322;SDS011;4700;48.822;9.270;2023-02-01T15:59:04;30.07;;;12.23;;
9322;SDS011;4700;48.822;9.270;2023-02-01T16:01:58;23.80;;;10.20;;
9322;SDS011;4700;48.822;9.270;2023-02-01T16:04:46;29.43;;;12.53;;
9322;SDS011;4700;48.822;9.270;2023-02-01T16:07:35;23.43;;;8.07;;
9322;SDS011;4700;48.822;9.270;2023-02-01T16:10:23;21.17;;;9.10;;
9322;SDS011;4700;48.822;9.270;2023-02-01T16:13:11;18.97;;;8.17;;
9322;SDS011;4700;48.822;9.270;2023-02-01T16:15:59;19.70;;;7.43;;
9322;SDS011;4700;48.822;9.270;2023-02-01T16:18:44;17.87;;;8.23;;
9322;SDS011;4700;48.822;9.270;2023-02-01T16:21:30;14.60;;;6.03;;
9322;SDS011;4700;48.822;9.270;2023-02-01T16:24:16;17.20;;;7.87;;
9322;SDS011;4700;48.822;9.270;2023-02-01T16:27:02;22.40;;;9.70;;
9322;SDS011;4700;48.822;9.270;2023-02-01T16:29:49;19.13;;;6.70;;
9322;SDS011;4700;48.822;9.270;2023-02-01T16:32:37;22.37;;;7.80;;
9322;SDS011;4700;48.822;9.270;2023-02-01T16:35:23;12.80;;;6.33;;
9322;SDS011;4700;48.822;9.270;2023-02-01T16:38:11;24.77;;;10.07;;
9322;SDS011;4700;48.822;9.270;2023-02-01T16:40:59;14.60;;;7.53;;
9322;SDS011;4700;48.822;9.270;2023-02-01T16:43:46;20.33;;;8.90;;
9322;SDS011;4700;48.822;9.270;2023-02-01T16:46:35;21.63;;;8.70;;
9322;SDS011;4700;48.822;9.270;2023-02-01T16:49:27;22.70;;;8.30;;
9322;SDS011;4700;48.822;9.270;2023-02-01T16:52:13;19.53;;;7.90;;
9322;SDS011;4700;48.822;9.270;2023-02-01T16:55:01;16.97;;;7.73;;
9322;SDS011;4700;48.822;9.270;2023-02-01T16:57:49;14.67;;;7.50;;
9322;SDS011;4700;48.822;9.270;2023-02-01T17:00:35;14.60;;;6.43;;
9322;SDS011;4700;48.822;9.270;2023-02-01T17:03:21;9.10;;;4.93;;
9322;SDS011;4700;48.822;9.270;2023-02-01T17:06:10;5.47;;;3.57;;
9322;SDS011;4700;48.822;9.270;2023-02-01T17:08:58;11.10;;;4.60;;
9322;SDS011;4700;48.822;9.270;2023-02-01T17:11:46;6.47;;;4.00;;
9322;SDS011;4700;48.822;9.270;2023-02-01T17:14:33;13.07;;;5.80;;
9322;SDS011;4700;48.822;9.270;2023-02-01T17:17:23;16.00;;;8.37;;
9322;SDS011;4700;48.822;9.270;2023-02-01T17:20:17;12.80;;;5.93;;
9322;SDS011;4700;48.822;9.270;2023-02-01T17:23:10;16.00;;;7.67;;
9322;SDS011;4700;48.822;9.270;2023-02-01T17:25:56;10.30;;;6.40;;
9322;SDS011;4700;48.822;9.270;2023-02-01T17:28:42;6.97;;;6.10;;
9322;SDS011;4700;48.822;9.270;2023-02-01T17:31:28;12.73;;;7.47;;
9322;SDS011;4700;48.822;9.270;2023-02-01T17:34:14;5.77;;;5.20;;
9322;SDS011;4700;48.822;9.270;2023-02-01T17:37:04;16.20;;;10.23;;